createdAt,value
2023-01-19T00:01:32.139Z,13.57
2023-01-19T00:04:24.080Z,11.63
2023-01-19T00:07:13.258Z,10.60
2023-01-19T00:10:04.922Z,10.27
2023-01-19T00:12:53.607Z,10.63
2023-01-19T00:15:42.512Z,10.90
2023-01-19T00:18:31.270Z,10.77
2023-01-19T00:21:19.897Z,10.13
2023-01-19T00:24:08.687Z,11.40
2023-01-19T00:26:58.807Z,10.47
2023-01-19T00:29:47.377Z,11.23
2023-01-19T00:32:36.049Z,12.15
2023-01-19T00:35:24.912Z,11.63
2023-01-19T00:38:14.425Z,12.70
2023-01-19T00:41:03.158Z,10.53
2023-01-19T00:43:53.549Z,11.70
2023-01-19T00:46:42.232Z,12.70
2023-01-19T00:49:31.049Z,11.20
2023-01-19T00:52:21.159Z,12.27
2023-01-19T00:55:11.405Z,13.50
2023-01-19T00:57:59.804Z,11.80
2023-01-19T01:00:50.003Z,13.23
2023-01-19T01:03:38.467Z,13.10
2023-01-19T01:06:27.151Z,16.25
2023-01-19T01:09:15.747Z,13.87
2023-01-19T01:12:04.197Z,10.57
2023-01-19T01:14:54.761Z,13.30
2023-01-19T01:17:47.957Z,13.13
2023-01-19T01:20:37.618Z,10.97
2023-01-19T01:23:26.174Z,12.27
2023-01-19T01:26:14.786Z,12.27
2023-01-19T01:29:03.619Z,13.90
2023-01-19T01:31:52.972Z,13.90
2023-01-19T01:34:43.011Z,14.37
2023-01-19T01:37:32.201Z,13.47
2023-01-19T01:40:21.595Z,13.60
2023-01-19T01:43:12.950Z,12.43
2023-01-19T01:46:01.820Z,11.90
2023-01-19T01:48:57.357Z,13.20
2023-01-19T01:51:50.046Z,11.90
2023-01-19T01:54:38.549Z,13.03
2023-01-19T01:57:28.559Z,11.87
2023-01-19T02:00:17.994Z,13.97
2023-01-19T02:03:05.910Z,15.53
2023-01-19T02:05:57.755Z,14.57
2023-01-19T02:09:09.433Z,14.10
2023-01-19T02:12:16.103Z,15.20
2023-01-19T02:15:05.851Z,13.07
2023-01-19T02:17:54.505Z,14.27
2023-01-19T02:20:49.024Z,14.40
2023-01-19T02:23:45.536Z,13.93
2023-01-19T02:26:38.377Z,14.77
2023-01-19T02:29:28.216Z,15.00
2023-01-19T02:32:16.837Z,15.23
2023-01-19T02:35:05.856Z,15.53
2023-01-19T02:37:55.538Z,16.10
2023-01-19T02:40:47.204Z,14.37
2023-01-19T02:43:40.780Z,15.50
2023-01-19T02:46:29.422Z,14.80
2023-01-19T02:49:21.072Z,14.50
2023-01-19T02:52:17.096Z,14.00
2023-01-19T02:55:15.460Z,15.30
2023-01-19T02:58:13.199Z,14.83
2023-01-19T03:01:14.834Z,15.20
2023-01-19T03:04:13.629Z,16.53
2023-01-19T03:07:10.611Z,17.37
2023-01-19T03:10:07.145Z,16.97
2023-01-19T03:13:02.062Z,15.80
2023-01-19T03:15:58.083Z,15.40
2023-01-19T03:18:51.111Z,20.63
2023-01-19T03:21:44.370Z,17.27
2023-01-19T03:24:38.735Z,18.87
2023-01-19T03:27:31.352Z,15.00
2023-01-19T03:30:26.675Z,17.70
2023-01-19T03:33:23.598Z,17.07
2023-01-19T03:36:17.930Z,17.10
2023-01-19T03:42:07.344Z,17.83
2023-01-19T03:51:17.634Z,21.30
2023-01-19T03:54:06.771Z,18.30
2023-01-19T03:56:59.295Z,19.67
2023-01-19T03:59:48.166Z,18.33
2023-01-19T04:02:36.541Z,17.47
2023-01-19T04:05:27.150Z,14.37
2023-01-19T04:08:22.756Z,18.30
2023-01-19T04:11:12.360Z,17.37
2023-01-19T04:14:01.825Z,18.17
2023-01-19T04:16:51.696Z,19.40
2023-01-19T04:19:41.298Z,19.10
2023-01-19T04:22:31.965Z,24.40
2023-01-19T04:25:23.319Z,19.97
2023-01-19T04:28:13.335Z,18.70
2023-01-19T04:31:09.573Z,17.83
2023-01-19T04:33:58.056Z,19.73
2023-01-19T04:36:47.065Z,19.80
2023-01-19T04:39:38.216Z,16.63
2023-01-19T04:42:39.145Z,18.87
2023-01-19T04:45:27.823Z,16.83
2023-01-19T04:48:22.012Z,15.87
2023-01-19T04:51:13.384Z,17.50
2023-01-19T04:54:01.720Z,18.20
2023-01-19T04:56:50.229Z,15.07
2023-01-19T04:59:41.101Z,17.40
2023-01-19T05:02:32.668Z,17.87
2023-01-19T05:05:22.932Z,15.93
2023-01-19T05:08:11.377Z,18.50
2023-01-19T05:11:00.162Z,17.37
2023-01-19T05:13:50.999Z,18.00
2023-01-19T05:16:41.349Z,16.87
2023-01-19T05:19:32.464Z,19.33
2023-01-19T05:22:20.708Z,17.47
2023-01-19T05:25:10.073Z,18.43
2023-01-19T05:27:58.890Z,18.47
2023-01-19T05:30:48.018Z,19.07
2023-01-19T05:33:44.178Z,19.63
2023-01-19T05:36:32.985Z,16.53
2023-01-19T05:39:22.359Z,17.30
2023-01-19T05:42:10.619Z,12.17
2023-01-19T05:45:02.416Z,18.00
2023-01-19T05:47:51.114Z,19.00
2023-01-19T05:50:43.617Z,17.93
2023-01-19T05:53:32.075Z,16.43
2023-01-19T05:56:23.112Z,14.83
2023-01-19T05:59:12.613Z,19.23
2023-01-19T06:02:01.286Z,17.20
2023-01-19T06:04:50.499Z,16.43
2023-01-19T06:07:40.879Z,17.00
2023-01-19T06:10:29.537Z,16.63
2023-01-19T06:13:21.532Z,19.10
2023-01-19T06:16:13.038Z,17.80
2023-01-19T06:19:01.418Z,16.67
2023-01-19T06:21:52.669Z,14.90
2023-01-19T06:24:42.675Z,9.90
2023-01-19T06:27:32.054Z,18.40
2023-01-19T06:30:21.577Z,14.30
2023-01-19T06:33:12.079Z,18.87
2023-01-19T06:36:00.762Z,23.27
2023-01-19T06:38:49.060Z,17.27
2023-01-19T06:41:39.692Z,19.50
2023-01-19T06:44:30.771Z,17.90
2023-01-19T06:47:21.631Z,17.73
2023-01-19T06:50:14.019Z,17.10
2023-01-19T06:53:02.885Z,17.80
2023-01-19T06:55:53.127Z,19.30
2023-01-19T06:58:43.505Z,18.87
2023-01-19T07:01:33.071Z,18.80
2023-01-19T07:04:21.308Z,16.60
2023-01-19T07:07:09.564Z,17.47
2023-01-19T07:09:58.264Z,17.37
2023-01-19T07:12:47.859Z,17.00
2023-01-19T07:15:39.903Z,19.27
2023-01-19T07:18:28.208Z,17.73
2023-01-19T07:21:16.799Z,17.07
2023-01-19T07:24:05.442Z,17.90
2023-01-19T07:26:53.765Z,17.77
2023-01-19T07:29:42.994Z,17.93
2023-01-19T07:32:32.797Z,19.07
2023-01-19T07:35:22.288Z,17.30
2023-01-19T07:38:10.726Z,18.80
2023-01-19T07:41:02.545Z,17.10
2023-01-19T07:43:52.872Z,17.23
2023-01-19T07:46:41.359Z,18.17
2023-01-19T07:49:33.296Z,17.57
2023-01-19T07:52:23.111Z,15.50
2023-01-19T07:55:11.559Z,15.33
2023-01-19T07:57:59.922Z,14.67
2023-01-19T08:00:48.209Z,15.20
2023-01-19T08:03:38.771Z,15.10
2023-01-19T08:06:34.230Z,14.63
2023-01-19T08:09:23.160Z,15.20
2023-01-19T08:12:11.664Z,15.30
2023-01-19T08:15:00.661Z,13.80
2023-01-19T08:17:56.520Z,14.17
2023-01-19T08:20:44.929Z,14.40
2023-01-19T08:23:36.942Z,12.90
2023-01-19T08:26:29.854Z,13.70
2023-01-19T08:29:18.222Z,12.13
2023-01-19T08:32:09.528Z,12.90
2023-01-19T08:34:57.993Z,11.87
2023-01-19T08:37:46.475Z,12.70
2023-01-19T08:40:41.484Z,10.83
2023-01-19T08:43:30.238Z,11.10
2023-01-19T08:46:21.465Z,10.93
2023-01-19T08:49:10.130Z,9.67
2023-01-19T08:51:58.500Z,10.07
2023-01-19T08:54:47.202Z,8.63
2023-01-19T08:57:36.900Z,7.60
2023-01-19T09:00:27.205Z,8.70
2023-01-19T09:03:15.721Z,9.40
2023-01-19T09:06:06.999Z,9.80
2023-01-19T09:08:55.363Z,8.63
2023-01-19T09:11:43.802Z,8.03
2023-01-19T09:14:35.815Z,9.07
2023-01-19T09:17:24.458Z,8.50
2023-01-19T09:20:14.074Z,7.70
2023-01-19T09:23:02.651Z,5.90
2023-01-19T09:25:51.079Z,8.00
2023-01-19T09:28:40.034Z,8.30
2023-01-19T09:31:30.263Z,8.13
2023-01-19T09:34:19.090Z,8.13
2023-01-19T09:37:09.160Z,7.40
2023-01-19T09:39:58.592Z,8.73
2023-01-19T09:42:56.152Z,8.10
2023-01-19T09:45:50.250Z,7.63
2023-01-19T09:48:52.852Z,8.57
2023-01-19T09:51:45.421Z,7.77
2023-01-19T09:54:44.261Z,7.63
2023-01-19T09:57:33.612Z,7.33
2023-01-19T10:00:24.689Z,7.90
2023-01-19T10:03:17.352Z,8.67
2023-01-19T10:06:10.807Z,7.00
2023-01-19T10:09:09.446Z,8.60
2023-01-19T10:12:03.496Z,7.80
2023-01-19T10:14:57.887Z,7.33
2023-01-19T10:17:54.809Z,5.97
2023-01-19T10:20:48.430Z,7.27
2023-01-19T10:23:42.701Z,7.27
2023-01-19T10:26:36.525Z,8.00
2023-01-19T10:29:29.694Z,6.77
2023-01-19T10:32:21.457Z,7.13
2023-01-19T10:35:21.855Z,7.43
2023-01-19T10:38:15.597Z,8.70
2023-01-19T10:41:19.709Z,8.07
2023-01-19T10:44:09.571Z,6.70
2023-01-19T10:47:01.019Z,8.23
2023-01-19T10:49:49.984Z,8.50
2023-01-19T10:52:44.895Z,7.67
2023-01-19T10:55:39.052Z,8.57
2023-01-19T10:58:32.544Z,8.63
2023-01-19T11:01:23.299Z,9.23
2023-01-19T11:04:24.371Z,7.20
2023-01-19T11:07:20.204Z,9.13
2023-01-19T11:10:21.419Z,7.10
2023-01-19T11:13:16.090Z,8.13
2023-01-19T11:16:12.293Z,8.83
2023-01-19T11:19:03.345Z,8.30
2023-01-19T11:21:54.558Z,7.53
2023-01-19T11:24:45.717Z,7.90
2023-01-19T11:27:40.959Z,8.50
2023-01-19T11:30:36.832Z,8.30
2023-01-19T11:33:35.981Z,7.43
2023-01-19T11:36:27.003Z,9.07
2023-01-19T11:39:23.746Z,8.73
2023-01-19T11:42:14.483Z,9.27
2023-01-19T11:45:08.778Z,8.67
2023-01-19T11:48:00.404Z,8.27
2023-01-19T11:50:51.153Z,8.70
2023-01-19T11:53:44.534Z,9.17
2023-01-19T11:56:35.095Z,8.30
2023-01-19T11:59:25.165Z,9.20
2023-01-19T12:02:27.428Z,8.63
2023-01-19T12:05:20.476Z,7.60
2023-01-19T12:08:15.972Z,8.60
2023-01-19T12:11:07.476Z,9.00
2023-01-19T12:13:56.093Z,11.13
2023-01-19T12:16:45.543Z,9.07
2023-01-19T12:19:44.134Z,9.20
2023-01-19T12:22:42.678Z,9.47
2023-01-19T12:25:42.528Z,8.90
2023-01-19T12:28:33.807Z,9.50
2023-01-19T12:31:23.887Z,8.90
2023-01-19T12:34:40.247Z,9.70
2023-01-19T12:37:43.049Z,9.27
2023-01-19T12:40:35.333Z,10.70
2023-01-19T12:43:24.735Z,9.30
2023-01-19T12:46:30.909Z,9.00
2023-01-19T12:49:27.515Z,8.60
2023-01-19T12:52:24.843Z,7.77
2023-01-19T12:55:23.715Z,7.80
2023-01-19T12:58:19.151Z,7.43
2023-01-19T13:01:16.775Z,8.70
2023-01-19T13:04:09.365Z,9.50
2023-01-19T13:07:10.648Z,10.97
2023-01-19T13:09:59.417Z,9.70
2023-01-19T13:13:18.999Z,10.70
2023-01-19T13:16:40.478Z,10.60
2023-01-19T13:19:48.854Z,7.57
2023-01-19T13:23:13.824Z,9.90
2023-01-19T13:26:07.649Z,9.80
2023-01-19T13:29:04.512Z,9.90
2023-01-19T13:32:03.546Z,10.00
2023-01-19T13:34:57.668Z,10.77
2023-01-19T13:37:47.587Z,11.07
2023-01-19T13:40:49.226Z,9.87
2023-01-19T13:43:40.048Z,10.37
2023-01-19T13:46:31.716Z,10.07
2023-01-19T13:49:26.033Z,10.93
2023-01-19T13:52:17.131Z,10.63
2023-01-19T13:55:08.944Z,10.23
2023-01-19T13:57:58.262Z,10.50
2023-01-19T14:00:49.899Z,10.13
2023-01-19T14:03:42.989Z,10.40
2023-01-19T14:06:40.770Z,10.57
2023-01-19T14:09:29.881Z,11.73
2023-01-19T14:12:18.908Z,10.90
2023-01-19T14:15:14.376Z,10.60
2023-01-19T14:18:24.026Z,11.20
2023-01-19T14:21:15.308Z,11.50
2023-01-19T14:24:09.416Z,11.40
2023-01-19T14:27:12.385Z,10.27
2023-01-19T14:30:22.904Z,10.30
2023-01-19T14:33:34.877Z,12.30
2023-01-19T14:36:36.312Z,10.70
2023-01-19T14:39:27.444Z,11.20
2023-01-19T14:42:19.990Z,12.93
2023-01-19T14:45:20.414Z,11.50
2023-01-19T14:48:18.638Z,12.37
2023-01-19T14:51:07.286Z,13.10
2023-01-19T14:54:00.868Z,13.10
2023-01-19T14:56:50.622Z,13.60
2023-01-19T14:59:38.855Z,12.73
2023-01-19T15:02:29.141Z,13.20
2023-01-19T15:05:17.949Z,14.20
2023-01-19T15:08:16.027Z,13.80
2023-01-19T15:11:13.959Z,14.50
2023-01-19T15:14:04.575Z,13.40
2023-01-19T15:16:53.566Z,13.57
2023-01-19T15:19:41.913Z,14.33
2023-01-19T15:22:30.181Z,15.70
2023-01-19T15:25:21.112Z,14.70
2023-01-19T15:28:14.045Z,14.33
2023-01-19T15:31:02.483Z,14.53
2023-01-19T15:33:51.641Z,14.33
2023-01-19T15:36:40.650Z,13.73
2023-01-19T15:39:29.553Z,13.00
2023-01-19T15:42:18.191Z,14.87
2023-01-19T15:45:31.968Z,13.97
2023-01-19T15:48:22.471Z,13.40
2023-01-19T15:51:14.295Z,14.80
2023-01-19T15:54:02.593Z,14.13
2023-01-19T15:56:52.977Z,14.53
2023-01-19T15:59:42.569Z,13.53
2023-01-19T16:02:34.933Z,15.20
2023-01-19T16:05:30.619Z,13.30
2023-01-19T16:08:25.886Z,13.73
2023-01-19T16:11:18.545Z,11.80
2023-01-19T16:14:09.862Z,12.70
2023-01-19T16:17:00.028Z,13.83
2023-01-19T16:19:50.286Z,13.60
2023-01-19T16:22:38.804Z,15.47
2023-01-19T16:25:28.733Z,11.03
2023-01-19T16:28:17.100Z,14.53
2023-01-19T16:31:06.341Z,14.37
2023-01-19T16:33:55.884Z,12.00
2023-01-19T16:36:45.941Z,14.17
2023-01-19T16:39:34.586Z,13.50
2023-01-19T16:42:24.080Z,13.77
2023-01-19T16:45:12.707Z,13.70
2023-01-19T16:48:00.928Z,15.37
2023-01-19T16:51:00.145Z,13.33
2023-01-19T16:53:53.120Z,14.03
2023-01-19T16:56:43.839Z,12.20
2023-01-19T16:59:32.333Z,15.57
2023-01-19T17:02:23.205Z,15.97
2023-01-19T17:05:11.997Z,14.37
2023-01-19T17:08:00.433Z,14.00
2023-01-19T17:10:50.074Z,13.97
2023-01-19T17:13:39.272Z,13.60
2023-01-19T17:16:29.309Z,12.53
2023-01-19T17:19:19.282Z,14.50
2023-01-19T17:22:08.216Z,13.30
2023-01-19T17:24:56.951Z,13.30
2023-01-19T17:27:47.157Z,16.30
2023-01-19T17:30:35.578Z,13.23
2023-01-19T17:33:25.712Z,12.53
2023-01-19T17:36:16.517Z,12.73
2023-01-19T17:39:08.610Z,13.53
2023-01-19T17:41:59.467Z,12.43
2023-01-19T17:44:51.697Z,13.30
2023-01-19T17:47:40.204Z,13.03
2023-01-19T17:50:28.982Z,12.80
2023-01-19T17:53:20.699Z,12.77
2023-01-19T17:56:11.409Z,15.23
2023-01-19T17:59:00.881Z,13.10
2023-01-19T18:01:54.859Z,14.67
2023-01-19T18:04:43.554Z,13.83
2023-01-19T18:07:40.782Z,14.77
2023-01-19T18:10:29.393Z,15.50
2023-01-19T18:13:21.252Z,14.17
2023-01-19T18:16:14.952Z,14.07
2023-01-19T18:19:05.171Z,14.07
2023-01-19T18:21:53.589Z,11.30
2023-01-19T18:24:46.764Z,14.60
2023-01-19T18:27:36.392Z,12.80
2023-01-19T18:30:31.291Z,11.47
2023-01-19T18:33:21.046Z,9.13
2023-01-19T18:36:14.620Z,19.87
2023-01-19T18:39:04.135Z,13.80
2023-01-19T18:41:52.776Z,13.73
2023-01-19T18:44:42.481Z,13.13
2023-01-19T18:47:33.059Z,13.43
2023-01-19T18:50:21.330Z,17.13
2023-01-19T18:53:11.097Z,14.40
2023-01-19T18:56:02.033Z,14.30
2023-01-19T18:58:50.414Z,13.50
2023-01-19T19:01:40.040Z,13.07
2023-01-19T19:04:28.531Z,12.33
2023-01-19T19:07:16.776Z,12.90
2023-01-19T19:10:08.074Z,12.47
2023-01-19T19:12:56.576Z,13.80
2023-01-19T19:15:45.335Z,15.33
2023-01-19T19:18:35.525Z,13.07
2023-01-19T19:21:25.659Z,12.50
2023-01-19T19:24:14.377Z,14.57
2023-01-19T19:27:04.103Z,12.90
2023-01-19T19:29:53.673Z,12.80
2023-01-19T19:32:43.118Z,13.10
2023-01-19T19:35:32.717Z,13.70
2023-01-19T19:38:21.102Z,12.40
2023-01-19T19:41:12.447Z,13.77
2023-01-19T19:44:02.220Z,13.20
2023-01-19T19:46:50.780Z,14.10
2023-01-19T19:49:39.220Z,13.97
2023-01-19T19:55:31.530Z,14.13
2023-01-19T19:58:20.010Z,11.17
2023-01-19T20:01:11.787Z,14.57
2023-01-19T20:04:05.119Z,14.30
2023-01-19T20:06:53.740Z,13.40
2023-01-19T20:09:42.518Z,14.43
2023-01-19T20:12:30.796Z,10.83
2023-01-19T20:15:19.039Z,14.17
2023-01-19T20:18:11.851Z,13.30
2023-01-19T20:21:01.031Z,12.67
2023-01-19T20:23:53.333Z,12.43
2023-01-19T20:26:44.840Z,11.50
2023-01-19T20:29:33.121Z,13.30
2023-01-19T20:32:21.807Z,13.40
2023-01-19T20:35:15.565Z,13.47
2023-01-19T20:38:19.055Z,13.53
2023-01-19T20:41:08.940Z,10.70
2023-01-19T20:43:58.114Z,11.00
2023-01-19T20:46:49.204Z,13.47
2023-01-19T20:49:37.884Z,12.63
2023-01-19T20:52:27.878Z,13.02
2023-01-19T20:55:16.175Z,12.70
2023-01-19T20:58:04.684Z,13.30
2023-01-19T21:00:53.410Z,13.10
2023-01-19T21:03:42.716Z,12.90
2023-01-19T21:06:31.372Z,12.33
2023-01-19T21:09:22.883Z,10.37
2023-01-19T21:12:11.366Z,12.97
2023-01-19T21:15:00.155Z,10.57
2023-01-19T21:17:51.809Z,14.60
2023-01-19T21:20:40.167Z,14.30
2023-01-19T21:23:29.002Z,9.53
2023-01-19T21:26:21.072Z,12.60
2023-01-19T21:29:13.384Z,11.50
2023-01-19T21:32:02.001Z,12.17
2023-01-19T21:34:50.179Z,13.57
2023-01-19T21:37:38.651Z,12.90
2023-01-19T21:40:28.708Z,12.47
2023-01-19T21:43:20.146Z,13.20
2023-01-19T21:46:16.079Z,12.90
2023-01-19T21:49:06.811Z,12.47
2023-01-19T21:51:55.430Z,12.93
2023-01-19T21:54:44.114Z,13.50
2023-01-19T21:57:32.476Z,13.40
2023-01-19T22:00:22.898Z,12.50
2023-01-19T22:03:11.573Z,13.10
2023-01-19T22:06:05.582Z,12.03
2023-01-19T22:08:55.128Z,12.30
2023-01-19T22:11:43.399Z,13.23
2023-01-19T22:14:31.770Z,12.20
2023-01-19T22:17:21.767Z,12.03
2023-01-19T22:20:11.886Z,14.17
2023-01-19T22:23:01.891Z,11.97
2023-01-19T22:25:50.127Z,12.60
2023-01-19T22:28:40.930Z,12.20
2023-01-19T22:31:30.696Z,11.40
2023-01-19T22:34:20.493Z,13.57
2023-01-19T22:37:08.726Z,14.20
2023-01-19T22:39:57.098Z,15.30
2023-01-19T22:42:48.014Z,13.10
2023-01-19T22:45:36.374Z,13.33
2023-01-19T22:48:24.957Z,13.13
2023-01-19T22:51:15.219Z,14.17
2023-01-19T22:54:03.934Z,14.53
2023-01-19T22:56:54.209Z,15.77
2023-01-19T22:59:44.795Z,14.93
2023-01-19T23:02:33.134Z,15.93
2023-01-19T23:05:22.393Z,16.27
2023-01-19T23:08:12.047Z,14.77
2023-01-19T23:11:06.262Z,14.97
2023-01-19T23:13:55.293Z,16.13
2023-01-19T23:16:44.804Z,14.97
2023-01-19T23:19:33.108Z,13.60
2023-01-19T23:22:21.327Z,15.57
2023-01-19T23:25:11.618Z,15.70
2023-01-19T23:28:01.272Z,14.83
2023-01-19T23:30:49.671Z,15.67
2023-01-19T23:33:38.119Z,15.10
2023-01-19T23:36:34.440Z,15.00
2023-01-19T23:39:41.026Z,15.87
2023-01-19T23:42:30.995Z,15.03
2023-01-19T23:45:19.242Z,15.73
2023-01-19T23:48:08.163Z,14.60
2023-01-19T23:50:56.403Z,15.60
2023-01-19T23:53:46.406Z,17.40
2023-01-19T23:56:37.295Z,16.27
2023-01-19T23:59:27.404Z,14.37
